Airport Name : Split

Other Name : Split Kastela

ICAO : LDSP

IATA : SPU

FAA :

Latitude : 43.538944

Longitude : 16.297964

Country : Croatia

Local Date and Time : 2/24/2018 5:02:00 PM

 

TAF (Terminal Aerodrome Forecast)

TAF LDSP 241125Z 2412/2512 10009KT CAVOK TX14/2412Z TN02/2507Z BECMG 2413/2415 04014KT TEMPO 2421/2512 04015G25KT PROB40 TEMPO 2503/2512 3000 -RASN

 

METAR (METeorological Aerodrome Report)

LDSP 241600Z 03012KT CAVOK 11/M00 Q1007 NOSIG

LDSP 241530Z 04013KT CAVOK 12/00 Q1007 NOSIG

LDSP 241500Z 04012KT CAVOK 13/00 Q1007 NOSIG

LDSP 241430Z 04011KT CAVOK 14/01 Q1007 NOSIG

LDSP 241400Z 04011KT 020V090 9999 FEW055 15/01 Q1007 NOSIG

LDSP 241330Z 11007KT 080V150 9999 FEW055 14/04 Q1007 BECMG 04014KT

LDSP 241300Z 13008KT CAVOK 14/02 Q1007 NOSIG

LDSP 241230Z 12009KT CAVOK 14/03 Q1007 NOSIG